sensor_id;sensor_type;location;lat;lon;timestamp;temperature;humidity
17851;DHT22;9051;51.548;14.348;2023-05-09T00:01:38;9.20;99.90
17851;DHT22;9051;51.548;14.348;2023-05-09T00:04:12;9.20;99.90
17851;DHT22;9051;51.548;14.348;2023-05-09T00:06:45;9.10;99.90
17851;DHT22;9051;51.548;14.348;2023-05-09T00:09:17;9.10;99.90
17851;DHT22;9051;51.548;14.348;2023-05-09T00:11:49;9.10;99.90
17851;DHT22;9051;51.548;14.348;2023-05-09T00:14:21;9.00;99.90
17851;DHT22;9051;51.548;14.348;2023-05-09T00:16:54;8.90;99.90
17851;DHT22;9051;51.548;14.348;2023-05-09T00:19:30;8.90;99.90
17851;DHT22;9051;51.548;14.348;2023-05-09T00:22:02;8.90;99.90
17851;DHT22;9051;51.548;14.348;2023-05-09T00:24:34;8.90;99.90
17851;DHT22;9051;51.548;14.348;2023-05-09T00:27:06;8.80;99.90
17851;DHT22;9051;51.548;14.348;2023-05-09T00:29:39;8.70;99.90
17851;DHT22;9051;51.548;14.348;2023-05-09T00:32:11;8.70;99.90
17851;DHT22;9051;51.548;14.348;2023-05-09T00:34:44;8.70;99.90
17851;DHT22;9051;51.548;14.348;2023-05-09T00:37:16;8.60;99.90
17851;DHT22;9051;51.548;14.348;2023-05-09T00:39:48;8.60;99.90
17851;DHT22;9051;51.548;14.348;2023-05-09T00:42:21;8.60;99.90
17851;DHT22;9051;51.548;14.348;2023-05-09T00:44:53;8.60;99.90
17851;DHT22;9051;51.548;14.348;2023-05-09T00:47:26;8.60;99.90
17851;DHT22;9051;51.548;14.348;2023-05-09T00:50:00;8.60;99.90
17851;DHT22;9051;51.548;14.348;2023-05-09T00:52:33;8.50;99.90
17851;DHT22;9051;51.548;14.348;2023-05-09T00:55:07;8.50;99.90
17851;DHT22;9051;51.548;14.348;2023-05-09T00:57:39;8.50;99.90
17851;DHT22;9051;51.548;14.348;2023-05-09T01:00:12;8.40;99.90
17851;DHT22;9051;51.548;14.348;2023-05-09T01:02:52;8.40;99.90
17851;DHT22;9051;51.548;14.348;2023-05-09T01:05:39;8.40;99.90
17851;DHT22;9051;51.548;14.348;2023-05-09T01:08:23;8.40;99.90
17851;DHT22;9051;51.548;14.348;2023-05-09T01:11:10;8.40;99.90
17851;DHT22;9051;51.548;14.348;2023-05-09T01:13:50;8.30;99.90
17851;DHT22;9051;51.548;14.348;2023-05-09T01:16:36;8.30;99.90
17851;DHT22;9051;51.548;14.348;2023-05-09T01:19:23;8.20;99.90
17851;DHT22;9051;51.548;14.348;2023-05-09T01:22:01;8.20;99.90
17851;DHT22;9051;51.548;14.348;2023-05-09T01:25:05;8.20;99.90
17851;DHT22;9051;51.548;14.348;2023-05-09T01:27:50;8.20;99.90
17851;DHT22;9051;51.548;14.348;2023-05-09T01:30:26;8.10;99.90
17851;DHT22;9051;51.548;14.348;2023-05-09T01:33:00;8.00;99.90
17851;DHT22;9051;51.548;14.348;2023-05-09T01:35:36;8.00;99.90
17851;DHT22;9051;51.548;14.348;2023-05-09T01:38:13;8.10;99.90
17851;DHT22;9051;51.548;14.348;2023-05-09T01:40:48;8.00;99.90
17851;DHT22;9051;51.548;14.348;2023-05-09T01:43:25;8.00;99.90
17851;DHT22;9051;51.548;14.348;2023-05-09T01:46:00;8.00;99.90
17851;DHT22;9051;51.548;14.348;2023-05-09T01:48:33;8.00;99.90
17851;DHT22;9051;51.548;14.348;2023-05-09T01:51:08;8.00;99.90
17851;DHT22;9051;51.548;14.348;2023-05-09T01:53:41;7.90;99.90
17851;DHT22;9051;51.548;14.348;2023-05-09T01:56:15;7.90;99.90
17851;DHT22;9051;51.548;14.348;2023-05-09T01:58:49;8.00;99.90
17851;DHT22;9051;51.548;14.348;2023-05-09T02:01:23;7.80;99.90
17851;DHT22;9051;51.548;14.348;2023-05-09T02:03:56;7.80;99.90
17851;DHT22;9051;51.548;14.348;2023-05-09T02:06:28;7.70;99.90
17851;DHT22;9051;51.548;14.348;2023-05-09T02:09:01;7.70;99.90
17851;DHT22;9051;51.548;14.348;2023-05-09T02:11:33;7.70;99.90
17851;DHT22;9051;51.548;14.348;2023-05-09T02:14:05;7.70;99.90
17851;DHT22;9051;51.548;14.348;2023-05-09T02:16:39;7.70;99.90
17851;DHT22;9051;51.548;14.348;2023-05-09T02:19:11;7.60;99.90
17851;DHT22;9051;51.548;14.348;2023-05-09T02:21:43;7.60;99.90
17851;DHT22;9051;51.548;14.348;2023-05-09T02:24:15;7.50;99.90
17851;DHT22;9051;51.548;14.348;2023-05-09T02:26:47;7.50;99.90
17851;DHT22;9051;51.548;14.348;2023-05-09T02:29:21;7.40;99.90
17851;DHT22;9051;51.548;14.348;2023-05-09T02:31:59;7.40;99.90
17851;DHT22;9051;51.548;14.348;2023-05-09T02:34:32;7.40;99.90
17851;DHT22;9051;51.548;14.348;2023-05-09T02:37:04;7.30;99.90
17851;DHT22;9051;51.548;14.348;2023-05-09T02:39:39;7.30;99.90
17851;DHT22;9051;51.548;14.348;2023-05-09T02:42:15;7.30;99.90
17851;DHT22;9051;51.548;14.348;2023-05-09T02:44:47;7.20;99.90
17851;DHT22;9051;51.548;14.348;2023-05-09T02:47:21;7.20;99.90
17851;DHT22;9051;51.548;14.348;2023-05-09T02:49:53;7.10;99.90
17851;DHT22;9051;51.548;14.348;2023-05-09T02:52:25;7.20;99.90
17851;DHT22;9051;51.548;14.348;2023-05-09T02:54:57;7.20;99.90
17851;DHT22;9051;51.548;14.348;2023-05-09T02:57:29;7.10;99.90
17851;DHT22;9051;51.548;14.348;2023-05-09T03:00:02;7.10;99.90
17851;DHT22;9051;51.548;14.348;2023-05-09T03:02:36;7.10;99.90
17851;DHT22;9051;51.548;14.348;2023-05-09T03:05:10;7.10;99.90
17851;DHT22;9051;51.548;14.348;2023-05-09T03:07:42;6.90;99.90
17851;DHT22;9051;51.548;14.348;2023-05-09T03:10:15;6.90;99.90
17851;DHT22;9051;51.548;14.348;2023-05-09T03:12:47;6.80;99.90
17851;DHT22;9051;51.548;14.348;2023-05-09T03:15:19;6.80;99.90
17851;DHT22;9051;51.548;14.348;2023-05-09T03:17:53;6.70;99.90
17851;DHT22;9051;51.548;14.348;2023-05-09T03:20:26;6.70;99.90
17851;DHT22;9051;51.548;14.348;2023-05-09T03:22:58;6.60;99.90
17851;DHT22;9051;51.548;14.348;2023-05-09T03:25:30;6.60;99.90
17851;DHT22;9051;51.548;14.348;2023-05-09T03:28:01;6.60;99.90
17851;DHT22;9051;51.548;14.348;2023-05-09T03:30:34;6.60;99.90
17851;DHT22;9051;51.548;14.348;2023-05-09T03:33:08;6.60;99.90
17851;DHT22;9051;51.548;14.348;2023-05-09T03:35:40;6.50;99.90
17851;DHT22;9051;51.548;14.348;2023-05-09T03:38:13;6.50;99.90
17851;DHT22;9051;51.548;14.348;2023-05-09T03:40:45;6.50;99.90
17851;DHT22;9051;51.548;14.348;2023-05-09T03:43:17;6.40;99.90
17851;DHT22;9051;51.548;14.348;2023-05-09T03:45:49;6.40;99.90
17851;DHT22;9051;51.548;14.348;2023-05-09T03:48:23;6.40;99.90
17851;DHT22;9051;51.548;14.348;2023-05-09T03:50:55;6.40;99.90
17851;DHT22;9051;51.548;14.348;2023-05-09T03:53:30;6.40;99.90
17851;DHT22;9051;51.548;14.348;2023-05-09T03:56:02;6.40;99.90
17851;DHT22;9051;51.548;14.348;2023-05-09T03:58:38;6.40;99.90
17851;DHT22;9051;51.548;14.348;2023-05-09T04:01:10;6.40;99.90
17851;DHT22;9051;51.548;14.348;2023-05-09T04:03:44;6.50;99.90
17851;DHT22;9051;51.548;14.348;2023-05-09T04:06:18;6.50;99.90
17851;DHT22;9051;51.548;14.348;2023-05-09T04:08:50;6.50;99.90
17851;DHT22;9051;51.548;14.348;2023-05-09T04:11:22;6.50;99.90
17851;DHT22;9051;51.548;14.348;2023-05-09T04:13:54;6.50;99.90
17851;DHT22;9051;51.548;14.348;2023-05-09T04:16:33;6.60;99.90
17851;DHT22;9051;51.548;14.348;2023-05-09T04:19:06;6.60;99.90
17851;DHT22;9051;51.548;14.348;2023-05-09T04:21:39;6.70;99.90
17851;DHT22;9051;51.548;14.348;2023-05-09T04:24:12;6.70;99.90
17851;DHT22;9051;51.548;14.348;2023-05-09T04:26:47;6.80;99.90
17851;DHT22;9051;51.548;14.348;2023-05-09T04:29:23;6.80;99.90
17851;DHT22;9051;51.548;14.348;2023-05-09T04:31:58;6.90;99.90
17851;DHT22;9051;51.548;14.348;2023-05-09T04:34:32;6.90;99.90
17851;DHT22;9051;51.548;14.348;2023-05-09T04:37:10;7.00;99.90
17851;DHT22;9051;51.548;14.348;2023-05-09T04:39:43;7.00;99.90
17851;DHT22;9051;51.548;14.348;2023-05-09T04:42:22;7.10;99.90
17851;DHT22;9051;51.548;14.348;2023-05-09T04:44:54;7.10;99.90
17851;DHT22;9051;51.548;14.348;2023-05-09T04:47:26;7.20;99.90
17851;DHT22;9051;51.548;14.348;2023-05-09T04:50:00;7.20;99.90
17851;DHT22;9051;51.548;14.348;2023-05-09T04:52:32;7.30;99.90
17851;DHT22;9051;51.548;14.348;2023-05-09T04:55:04;7.30;99.90
17851;DHT22;9051;51.548;14.348;2023-05-09T04:57:41;7.40;99.90
17851;DHT22;9051;51.548;14.348;2023-05-09T05:00:14;7.50;99.90
17851;DHT22;9051;51.548;14.348;2023-05-09T05:02:49;7.60;99.90
17851;DHT22;9051;51.548;14.348;2023-05-09T05:05:23;7.70;99.90
17851;DHT22;9051;51.548;14.348;2023-05-09T05:07:55;7.70;99.90
17851;DHT22;9051;51.548;14.348;2023-05-09T05:10:32;7.80;99.90
17851;DHT22;9051;51.548;14.348;2023-05-09T05:13:11;7.80;99.90
17851;DHT22;9051;51.548;14.348;2023-05-09T05:15:46;7.80;99.90
17851;DHT22;9051;51.548;14.348;2023-05-09T05:18:19;7.90;99.90
17851;DHT22;9051;51.548;14.348;2023-05-09T05:20:52;8.00;99.90
17851;DHT22;9051;51.548;14.348;2023-05-09T05:23:25;8.00;99.90
17851;DHT22;9051;51.548;14.348;2023-05-09T05:25:58;8.10;99.90
17851;DHT22;9051;51.548;14.348;2023-05-09T05:28:31;8.10;99.90
17851;DHT22;9051;51.548;14.348;2023-05-09T05:31:03;8.20;99.90
17851;DHT22;9051;51.548;14.348;2023-05-09T05:33:36;8.20;99.90
17851;DHT22;9051;51.548;14.348;2023-05-09T05:36:10;8.30;99.90
17851;DHT22;9051;51.548;14.348;2023-05-09T05:38:42;8.40;99.90
17851;DHT22;9051;51.548;14.348;2023-05-09T05:41:14;8.50;99.90
17851;DHT22;9051;51.548;14.348;2023-05-09T05:43:46;8.50;99.90
17851;DHT22;9051;51.548;14.348;2023-05-09T05:46:19;8.60;99.90
17851;DHT22;9051;51.548;14.348;2023-05-09T05:48:51;8.60;99.90
17851;DHT22;9051;51.548;14.348;2023-05-09T05:51:25;8.80;99.90
17851;DHT22;9051;51.548;14.348;2023-05-09T05:53:57;8.80;99.90
17851;DHT22;9051;51.548;14.348;2023-05-09T05:56:29;9.00;99.90
17851;DHT22;9051;51.548;14.348;2023-05-09T05:59:02;9.10;99.90
17851;DHT22;9051;51.548;14.348;2023-05-09T06:01:33;9.20;99.90
17851;DHT22;9051;51.548;14.348;2023-05-09T06:04:06;9.30;99.90
17851;DHT22;9051;51.548;14.348;2023-05-09T06:06:40;9.30;99.90
17851;DHT22;9051;51.548;14.348;2023-05-09T06:09:11;9.40;99.90
17851;DHT22;9051;51.548;14.348;2023-05-09T06:11:43;9.40;99.90
17851;DHT22;9051;51.548;14.348;2023-05-09T06:14:15;9.50;99.90
17851;DHT22;9051;51.548;14.348;2023-05-09T06:16:47;9.60;99.90
17851;DHT22;9051;51.548;14.348;2023-05-09T06:19:19;9.70;99.90
17851;DHT22;9051;51.548;14.348;2023-05-09T06:21:53;9.80;99.90
17851;DHT22;9051;51.548;14.348;2023-05-09T06:24:25;9.80;99.90
17851;DHT22;9051;51.548;14.348;2023-05-09T06:26:57;9.90;99.90
17851;DHT22;9051;51.548;14.348;2023-05-09T06:29:28;10.00;99.90
17851;DHT22;9051;51.548;14.348;2023-05-09T06:32:00;10.20;99.90
17851;DHT22;9051;51.548;14.348;2023-05-09T06:34:32;10.30;99.90
17851;DHT22;9051;51.548;14.348;2023-05-09T06:37:05;10.40;99.90
17851;DHT22;9051;51.548;14.348;2023-05-09T06:39:37;10.50;99.90
17851;DHT22;9051;51.548;14.348;2023-05-09T06:42:09;10.60;99.90
17851;DHT22;9051;51.548;14.348;2023-05-09T06:44:43;10.70;99.90
17851;DHT22;9051;51.548;14.348;2023-05-09T06:47:15;10.90;99.90
17851;DHT22;9051;51.548;14.348;2023-05-09T06:52:19;11.00;99.90
17851;DHT22;9051;51.548;14.348;2023-05-09T06:54:52;11.20;99.90
17851;DHT22;9051;51.548;14.348;2023-05-09T06:57:24;11.30;99.90
17851;DHT22;9051;51.548;14.348;2023-05-09T06:59:56;11.50;99.90
17851;DHT22;9051;51.548;14.348;2023-05-09T07:02:28;11.50;99.90
17851;DHT22;9051;51.548;14.348;2023-05-09T07:05:00;11.60;99.90
17851;DHT22;9051;51.548;14.348;2023-05-09T07:07:33;11.80;99.90
17851;DHT22;9051;51.548;14.348;2023-05-09T07:10:06;11.90;99.90
17851;DHT22;9051;51.548;14.348;2023-05-09T07:12:41;12.00;99.90
17851;DHT22;9051;51.548;14.348;2023-05-09T07:15:13;12.10;99.90
17851;DHT22;9051;51.548;14.348;2023-05-09T07:17:45;12.30;99.90
17851;DHT22;9051;51.548;14.348;2023-05-09T07:20:17;12.30;99.90
17851;DHT22;9051;51.548;14.348;2023-05-09T07:22:51;12.40;99.90
17851;DHT22;9051;51.548;14.348;2023-05-09T07:25:23;12.50;99.90
17851;DHT22;9051;51.548;14.348;2023-05-09T07:27:55;12.60;99.90
17851;DHT22;9051;51.548;14.348;2023-05-09T07:30:27;12.70;99.90
17851;DHT22;9051;51.548;14.348;2023-05-09T07:33:00;12.80;99.90
17851;DHT22;9051;51.548;14.348;2023-05-09T07:35:33;12.90;99.90
17851;DHT22;9051;51.548;14.348;2023-05-09T07:38:06;13.00;99.90
17851;DHT22;9051;51.548;14.348;2023-05-09T07:40:38;13.10;99.90
17851;DHT22;9051;51.548;14.348;2023-05-09T07:43:10;13.20;99.90
17851;DHT22;9051;51.548;14.348;2023-05-09T07:45:43;13.30;99.90
17851;DHT22;9051;51.548;14.348;2023-05-09T07:48:15;13.40;99.90
17851;DHT22;9051;51.548;14.348;2023-05-09T07:50:47;13.50;99.90
17851;DHT22;9051;51.548;14.348;2023-05-09T07:53:20;13.50;99.90
17851;DHT22;9051;51.548;14.348;2023-05-09T07:55:53;13.50;99.90
17851;DHT22;9051;51.548;14.348;2023-05-09T07:58:24;13.60;99.90
17851;DHT22;9051;51.548;14.348;2023-05-09T08:00:57;13.80;99.90
17851;DHT22;9051;51.548;14.348;2023-05-09T08:03:29;13.90;99.90
17851;DHT22;9051;51.548;14.348;2023-05-09T08:06:01;14.00;99.90
17851;DHT22;9051;51.548;14.348;2023-05-09T08:08:35;14.00;99.90
17851;DHT22;9051;51.548;14.348;2023-05-09T08:11:07;14.10;99.90
17851;DHT22;9051;51.548;14.348;2023-05-09T08:13:39;14.10;99.90
17851;DHT22;9051;51.548;14.348;2023-05-09T08:16:11;14.10;99.90
17851;DHT22;9051;51.548;14.348;2023-05-09T08:18:43;14.30;99.90
17851;DHT22;9051;51.548;14.348;2023-05-09T08:21:15;14.30;99.90
17851;DHT22;9051;51.548;14.348;2023-05-09T08:23:48;14.50;99.90
17851;DHT22;9051;51.548;14.348;2023-05-09T08:26:22;14.60;99.90
17851;DHT22;9051;51.548;14.348;2023-05-09T08:28:53;14.70;99.90
17851;DHT22;9051;51.548;14.348;2023-05-09T08:31:26;14.80;99.90
17851;DHT22;9051;51.548;14.348;2023-05-09T08:33:57;14.80;99.90
17851;DHT22;9051;51.548;14.348;2023-05-09T08:36:30;14.90;99.90
17851;DHT22;9051;51.548;14.348;2023-05-09T08:39:04;15.00;99.90
17851;DHT22;9051;51.548;14.348;2023-05-09T08:41:38;15.10;99.90
17851;DHT22;9051;51.548;14.348;2023-05-09T08:44:10;15.30;99.90
17851;DHT22;9051;51.548;14.348;2023-05-09T08:46:43;15.30;99.90
17851;DHT22;9051;51.548;14.348;2023-05-09T08:49:16;15.40;99.90
17851;DHT22;9051;51.548;14.348;2023-05-09T08:51:50;15.40;99.90
17851;DHT22;9051;51.548;14.348;2023-05-09T08:54:24;15.40;99.90
17851;DHT22;9051;51.548;14.348;2023-05-09T08:56:56;15.50;99.90
17851;DHT22;9051;51.548;14.348;2023-05-09T08:59:29;15.60;99.90
17851;DHT22;9051;51.548;14.348;2023-05-09T09:02:05;15.70;99.90
17851;DHT22;9051;51.548;14.348;2023-05-09T09:04:37;15.70;99.90
17851;DHT22;9051;51.548;14.348;2023-05-09T09:07:11;15.80;99.90
17851;DHT22;9051;51.548;14.348;2023-05-09T09:09:46;15.90;99.90
17851;DHT22;9051;51.548;14.348;2023-05-09T09:12:21;16.10;99.90
17851;DHT22;9051;51.548;14.348;2023-05-09T09:14:53;16.00;99.90
17851;DHT22;9051;51.548;14.348;2023-05-09T09:17:27;16.00;99.90
17851;DHT22;9051;51.548;14.348;2023-05-09T09:20:02;16.10;99.90
17851;DHT22;9051;51.548;14.348;2023-05-09T09:22:37;16.20;99.90
17851;DHT22;9051;51.548;14.348;2023-05-09T09:25:14;16.30;99.90
17851;DHT22;9051;51.548;14.348;2023-05-09T09:27:46;16.50;99.90
17851;DHT22;9051;51.548;14.348;2023-05-09T09:30:18;16.60;99.90
17851;DHT22;9051;51.548;14.348;2023-05-09T09:32:51;16.70;99.90
17851;DHT22;9051;51.548;14.348;2023-05-09T09:35:23;16.80;99.90
17851;DHT22;9051;51.548;14.348;2023-05-09T09:37:58;16.80;99.90
17851;DHT22;9051;51.548;14.348;2023-05-09T09:40:31;16.90;99.90
17851;DHT22;9051;51.548;14.348;2023-05-09T09:43:05;16.90;99.90
17851;DHT22;9051;51.548;14.348;2023-05-09T09:45:40;16.80;99.90
17851;DHT22;9051;51.548;14.348;2023-05-09T09:48:12;16.80;99.90
17851;DHT22;9051;51.548;14.348;2023-05-09T09:50:46;16.80;99.90
17851;DHT22;9051;51.548;14.348;2023-05-09T09:53:19;16.90;99.90
17851;DHT22;9051;51.548;14.348;2023-05-09T09:55:53;17.00;99.90
17851;DHT22;9051;51.548;14.348;2023-05-09T09:58:25;17.10;99.90
17851;DHT22;9051;51.548;14.348;2023-05-09T10:01:04;17.30;99.90
17851;DHT22;9051;51.548;14.348;2023-05-09T10:03:38;17.40;99.90
17851;DHT22;9051;51.548;14.348;2023-05-09T10:06:10;17.60;99.90
17851;DHT22;9051;51.548;14.348;2023-05-09T10:08:44;17.60;99.90
17851;DHT22;9051;51.548;14.348;2023-05-09T10:11:20;17.60;99.90
17851;DHT22;9051;51.548;14.348;2023-05-09T10:13:52;17.70;99.90
17851;DHT22;9051;51.548;14.348;2023-05-09T10:16:24;17.70;99.90
17851;DHT22;9051;51.548;14.348;2023-05-09T10:18:56;17.70;99.90
17851;DHT22;9051;51.548;14.348;2023-05-09T10:21:29;17.90;99.90
17851;DHT22;9051;51.548;14.348;2023-05-09T10:24:02;18.00;99.90
17851;DHT22;9051;51.548;14.348;2023-05-09T10:26:37;18.00;99.90
17851;DHT22;9051;51.548;14.348;2023-05-09T10:29:11;18.10;99.90
17851;DHT22;9051;51.548;14.348;2023-05-09T10:31:53;18.10;99.90
17851;DHT22;9051;51.548;14.348;2023-05-09T10:34:28;18.10;99.90
17851;DHT22;9051;51.548;14.348;2023-05-09T10:37:02;18.20;99.90
17851;DHT22;9051;51.548;14.348;2023-05-09T10:39:35;18.30;99.90
17851;DHT22;9051;51.548;14.348;2023-05-09T10:42:09;18.30;99.90
17851;DHT22;9051;51.548;14.348;2023-05-09T10:44:43;18.50;99.90
17851;DHT22;9051;51.548;14.348;2023-05-09T10:47:15;18.60;99.90
17851;DHT22;9051;51.548;14.348;2023-05-09T10:49:48;18.70;99.90
17851;DHT22;9051;51.548;14.348;2023-05-09T10:52:20;18.80;99.90
17851;DHT22;9051;51.548;14.348;2023-05-09T10:54:59;18.80;99.90
17851;DHT22;9051;51.548;14.348;2023-05-09T10:57:38;18.90;99.90
17851;DHT22;9051;51.548;14.348;2023-05-09T11:00:11;19.00;99.90
17851;DHT22;9051;51.548;14.348;2023-05-09T11:03:04;19.10;99.90
17851;DHT22;9051;51.548;14.348;2023-05-09T11:05:38;19.00;99.90
17851;DHT22;9051;51.548;14.348;2023-05-09T11:08:17;19.00;99.90
17851;DHT22;9051;51.548;14.348;2023-05-09T11:10:50;19.20;99.90
17851;DHT22;9051;51.548;14.348;2023-05-09T11:13:24;19.40;99.90
17851;DHT22;9051;51.548;14.348;2023-05-09T11:16:04;19.50;99.90
17851;DHT22;9051;51.548;14.348;2023-05-09T11:18:49;19.50;99.90
17851;DHT22;9051;51.548;14.348;2023-05-09T11:21:21;19.60;99.90
17851;DHT22;9051;51.548;14.348;2023-05-09T11:23:53;19.70;99.90
17851;DHT22;9051;51.548;14.348;2023-05-09T11:26:28;19.70;99.90
17851;DHT22;9051;51.548;14.348;2023-05-09T11:29:05;19.70;99.90
17851;DHT22;9051;51.548;14.348;2023-05-09T11:32:03;19.60;99.90
17851;DHT22;9051;51.548;14.348;2023-05-09T11:34:35;19.70;99.90
17851;DHT22;9051;51.548;14.348;2023-05-09T11:37:09;19.60;99.90
17851;DHT22;9051;51.548;14.348;2023-05-09T11:39:54;19.70;99.90
17851;DHT22;9051;51.548;14.348;2023-05-09T11:42:28;19.80;99.90
17851;DHT22;9051;51.548;14.348;2023-05-09T11:45:03;19.80;99.90
17851;DHT22;9051;51.548;14.348;2023-05-09T11:47:37;20.00;99.90
17851;DHT22;9051;51.548;14.348;2023-05-09T11:50:10;20.10;99.90
17851;DHT22;9051;51.548;14.348;2023-05-09T11:52:42;20.20;99.90
17851;DHT22;9051;51.548;14.348;2023-05-09T11:55:16;20.30;99.90
17851;DHT22;9051;51.548;14.348;2023-05-09T11:57:50;20.40;99.90
17851;DHT22;9051;51.548;14.348;2023-05-09T12:00:24;20.50;99.90
17851;DHT22;9051;51.548;14.348;2023-05-09T12:02:56;20.40;99.90
17851;DHT22;9051;51.548;14.348;2023-05-09T12:05:28;20.50;99.90
17851;DHT22;9051;51.548;14.348;2023-05-09T12:08:02;20.40;99.90
17851;DHT22;9051;51.548;14.348;2023-05-09T12:10:37;20.50;99.90
17851;DHT22;9051;51.548;14.348;2023-05-09T12:13:09;20.50;99.90
17851;DHT22;9051;51.548;14.348;2023-05-09T12:15:43;20.70;99.90
17851;DHT22;9051;51.548;14.348;2023-05-09T12:18:15;20.70;99.90
17851;DHT22;9051;51.548;14.348;2023-05-09T12:20:48;20.70;99.90
17851;DHT22;9051;51.548;14.348;2023-05-09T12:23:20;20.70;99.90
17851;DHT22;9051;51.548;14.348;2023-05-09T12:25:53;20.80;99.90
17851;DHT22;9051;51.548;14.348;2023-05-09T12:28:26;20.90;99.90
17851;DHT22;9051;51.548;14.348;2023-05-09T12:30:59;20.90;99.90
17851;DHT22;9051;51.548;14.348;2023-05-09T12:33:32;21.00;99.90
17851;DHT22;9051;51.548;14.348;2023-05-09T12:36:08;21.10;99.90
17851;DHT22;9051;51.548;14.348;2023-05-09T12:38:51;21.20;99.90
17851;DHT22;9051;51.548;14.348;2023-05-09T12:41:23;21.40;99.90
17851;DHT22;9051;51.548;14.348;2023-05-09T12:43:56;21.30;99.90
17851;DHT22;9051;51.548;14.348;2023-05-09T12:46:30;21.30;99.90
17851;DHT22;9051;51.548;14.348;2023-05-09T12:49:02;21.40;99.90
17851;DHT22;9051;51.548;14.348;2023-05-09T12:54:19;21.40;99.90
17851;DHT22;9051;51.548;14.348;2023-05-09T12:56:51;21.50;99.90
17851;DHT22;9051;51.548;14.348;2023-05-09T12:59:26;21.50;99.90
17851;DHT22;9051;51.548;14.348;2023-05-09T13:01:59;21.60;99.90
17851;DHT22;9051;51.548;14.348;2023-05-09T13:04:32;21.60;99.90
17851;DHT22;9051;51.548;14.348;2023-05-09T13:07:07;21.70;99.90
17851;DHT22;9051;51.548;14.348;2023-05-09T13:09:54;21.80;99.90
17851;DHT22;9051;51.548;14.348;2023-05-09T13:12:27;22.00;99.90
17851;DHT22;9051;51.548;14.348;2023-05-09T13:14:58;22.00;99.90
17851;DHT22;9051;51.548;14.348;2023-05-09T13:17:32;22.00;99.90
17851;DHT22;9051;51.548;14.348;2023-05-09T13:20:05;22.10;99.90
17851;DHT22;9051;51.548;14.348;2023-05-09T13:22:38;22.20;99.90
17851;DHT22;9051;51.548;14.348;2023-05-09T13:25:10;22.30;99.90
17851;DHT22;9051;51.548;14.348;2023-05-09T13:27:42;22.20;99.90
17851;DHT22;9051;51.548;14.348;2023-05-09T13:30:15;22.10;99.90
17851;DHT22;9051;51.548;14.348;2023-05-09T13:32:48;22.20;99.90
17851;DHT22;9051;51.548;14.348;2023-05-09T13:35:21;22.20;99.90
17851;DHT22;9051;51.548;14.348;2023-05-09T13:37:52;22.30;99.90
17851;DHT22;9051;51.548;14.348;2023-05-09T13:40:25;22.20;99.90
17851;DHT22;9051;51.548;14.348;2023-05-09T13:42:57;22.10;99.90
17851;DHT22;9051;51.548;14.348;2023-05-09T13:45:29;22.20;99.90
17851;DHT22;9051;51.548;14.348;2023-05-09T13:48:02;22.40;99.90
17851;DHT22;9051;51.548;14.348;2023-05-09T13:50:35;22.50;99.90
17851;DHT22;9051;51.548;14.348;2023-05-09T13:53:06;22.50;99.90
17851;DHT22;9051;51.548;14.348;2023-05-09T13:55:38;22.40;99.90
17851;DHT22;9051;51.548;14.348;2023-05-09T13:58:10;22.50;99.90
17851;DHT22;9051;51.548;14.348;2023-05-09T14:00:42;22.40;99.90
17851;DHT22;9051;51.548;14.348;2023-05-09T14:03:15;22.50;99.90
17851;DHT22;9051;51.548;14.348;2023-05-09T14:05:47;22.50;99.90
17851;DHT22;9051;51.548;14.348;2023-05-09T14:08:19;22.40;99.90
17851;DHT22;9051;51.548;14.348;2023-05-09T14:10:51;22.20;99.90
17851;DHT22;9051;51.548;14.348;2023-05-09T14:13:24;22.30;99.90
17851;DHT22;9051;51.548;14.348;2023-05-09T14:15:56;22.30;99.90
17851;DHT22;9051;51.548;14.348;2023-05-09T14:18:29;22.20;99.90
17851;DHT22;9051;51.548;14.348;2023-05-09T14:21:01;22.30;99.90
17851;DHT22;9051;51.548;14.348;2023-05-09T14:23:33;22.40;99.90
17851;DHT22;9051;51.548;14.348;2023-05-09T14:26:05;22.50;99.90
17851;DHT22;9051;51.548;14.348;2023-05-09T14:28:37;22.50;99.90
17851;DHT22;9051;51.548;14.348;2023-05-09T14:31:09;22.50;99.90
17851;DHT22;9051;51.548;14.348;2023-05-09T14:33:42;22.60;99.90
17851;DHT22;9051;51.548;14.348;2023-05-09T14:36:14;22.60;99.90
17851;DHT22;9051;51.548;14.348;2023-05-09T14:38:47;22.60;99.90
17851;DHT22;9051;51.548;14.348;2023-05-09T14:41:19;22.60;99.90
17851;DHT22;9051;51.548;14.348;2023-05-09T14:43:51;22.60;99.90
17851;DHT22;9051;51.548;14.348;2023-05-09T14:46:23;22.50;99.90
17851;DHT22;9051;51.548;14.348;2023-05-09T14:48:56;22.60;99.90
17851;DHT22;9051;51.548;14.348;2023-05-09T14:51:33;22.70;99.90
17851;DHT22;9051;51.548;14.348;2023-05-09T14:54:05;22.80;99.90
17851;DHT22;9051;51.548;14.348;2023-05-09T14:56:37;22.80;99.90
17851;DHT22;9051;51.548;14.348;2023-05-09T14:59:09;22.80;99.90
17851;DHT22;9051;51.548;14.348;2023-05-09T15:01:41;22.70;99.90
17851;DHT22;9051;51.548;14.348;2023-05-09T15:04:16;22.50;99.90
17851;DHT22;9051;51.548;14.348;2023-05-09T15:06:48;22.40;99.90
17851;DHT22;9051;51.548;14.348;2023-05-09T15:09:20;22.40;99.90
17851;DHT22;9051;51.548;14.348;2023-05-09T15:11:52;22.30;99.90
17851;DHT22;9051;51.548;14.348;2023-05-09T15:14:24;22.40;99.90
17851;DHT22;9051;51.548;14.348;2023-05-09T15:16:56;22.20;99.90
17851;DHT22;9051;51.548;14.348;2023-05-09T15:19:33;22.30;99.90
17851;DHT22;9051;51.548;14.348;2023-05-09T15:22:06;22.30;99.90
17851;DHT22;9051;51.548;14.348;2023-05-09T15:24:38;22.30;99.90
17851;DHT22;9051;51.548;14.348;2023-05-09T15:27:12;22.20;99.90
17851;DHT22;9051;51.548;14.348;2023-05-09T15:29:44;22.20;99.90
17851;DHT22;9051;51.548;14.348;2023-05-09T15:32:16;22.20;99.90
17851;DHT22;9051;51.548;14.348;2023-05-09T15:34:49;22.20;99.90
17851;DHT22;9051;51.548;14.348;2023-05-09T15:37:21;22.30;99.90
17851;DHT22;9051;51.548;14.348;2023-05-09T15:39:53;22.30;99.90
17851;DHT22;9051;51.548;14.348;2023-05-09T15:42:25;22.30;99.90
17851;DHT22;9051;51.548;14.348;2023-05-09T15:44:57;22.30;99.90
17851;DHT22;9051;51.548;14.348;2023-05-09T15:47:29;22.30;99.90
17851;DHT22;9051;51.548;14.348;2023-05-09T15:50:03;22.30;99.90
17851;DHT22;9051;51.548;14.348;2023-05-09T15:52:35;22.20;99.90
17851;DHT22;9051;51.548;14.348;2023-05-09T15:55:08;22.10;99.90
17851;DHT22;9051;51.548;14.348;2023-05-09T15:57:42;21.90;99.90
17851;DHT22;9051;51.548;14.348;2023-05-09T16:00:15;22.00;99.90
17851;DHT22;9051;51.548;14.348;2023-05-09T16:02:47;22.10;99.90
17851;DHT22;9051;51.548;14.348;2023-05-09T16:05:21;22.10;99.90
17851;DHT22;9051;51.548;14.348;2023-05-09T16:07:53;21.80;99.90
17851;DHT22;9051;51.548;14.348;2023-05-09T16:10:25;21.70;99.90
17851;DHT22;9051;51.548;14.348;2023-05-09T16:12:57;21.60;99.90
17851;DHT22;9051;51.548;14.348;2023-05-09T16:15:29;21.60;99.90
17851;DHT22;9051;51.548;14.348;2023-05-09T16:18:01;21.50;99.90
17851;DHT22;9051;51.548;14.348;2023-05-09T16:20:35;21.40;99.90
17851;DHT22;9051;51.548;14.348;2023-05-09T16:23:07;21.40;99.90